sensor_id;sensor_type;location;lat;lon;timestamp;pressure;altitude;pressure_sealevel;temperature;humidity
818;BME280;391;51.052;6.954;2023-05-23T00:02:02;101022.19;;;18.68;73.01
818;BME280;391;51.052;6.954;2023-05-23T00:04:09;101025.72;;;18.74;73.00
818;BME280;391;51.052;6.954;2023-05-23T00:06:18;101023.06;;;18.80;72.76
818;BME280;391;51.052;6.954;2023-05-23T00:08:23;101020.44;;;18.76;72.97
818;BME280;391;51.052;6.954;2023-05-23T00:10:27;101021.31;;;18.84;72.90
818;BME280;391;51.052;6.954;2023-05-23T00:12:30;101018.69;;;18.88;72.54
818;BME280;391;51.052;6.954;2023-05-23T00:14:34;101021.34;;;18.82;72.64
818;BME280;391;51.052;6.954;2023-05-23T00:16:39;101021.34;;;18.79;72.61
818;BME280;391;51.052;6.954;2023-05-23T00:18:45;101018.66;;;18.76;72.78
818;BME280;391;51.052;6.954;2023-05-23T00:20:48;101018.69;;;18.72;72.70
818;BME280;391;51.052;6.954;2023-05-23T00:22:53;101028.38;;;18.65;73.06
818;BME280;391;51.052;6.954;2023-05-23T00:25:00;101030.13;;;18.65;73.06
818;BME280;391;51.052;6.954;2023-05-23T00:27:04;101031.88;;;18.69;73.27
818;BME280;391;51.052;6.954;2023-05-23T00:29:07;101022.22;;;18.69;73.13
818;BME280;391;51.052;6.954;2023-05-23T00:31:17;101028.38;;;18.71;73.09
818;BME280;391;51.052;6.954;2023-05-23T00:33:20;101025.72;;;18.79;73.05
818;BME280;391;51.052;6.954;2023-05-23T00:35:27;101021.31;;;18.76;72.95
818;BME280;391;51.052;6.954;2023-05-23T00:37:30;101023.09;;;18.73;73.03
818;BME280;391;51.052;6.954;2023-05-23T00:39:35;101026.59;;;18.69;73.19
818;BME280;391;51.052;6.954;2023-05-23T00:41:38;101026.59;;;18.70;73.27
818;BME280;391;51.052;6.954;2023-05-23T00:43:42;101034.50;;;18.76;73.06
818;BME280;391;51.052;6.954;2023-05-23T00:45:47;101025.72;;;18.65;72.75
818;BME280;391;51.052;6.954;2023-05-23T00:47:51;101035.41;;;18.60;72.94
818;BME280;391;51.052;6.954;2023-05-23T00:49:55;101023.06;;;18.61;72.91
818;BME280;391;51.052;6.954;2023-05-23T00:52:00;101032.78;;;18.60;72.53
818;BME280;391;51.052;6.954;2023-05-23T00:54:05;101031.00;;;18.58;72.73
818;BME280;391;51.052;6.954;2023-05-23T00:56:08;101034.53;;;18.60;72.37
818;BME280;391;51.052;6.954;2023-05-23T00:58:13;101035.41;;;18.60;72.58
818;BME280;391;51.052;6.954;2023-05-23T01:00:18;101031.88;;;18.60;72.55
818;BME280;391;51.052;6.954;2023-05-23T01:02:22;101038.06;;;18.66;72.84
818;BME280;391;51.052;6.954;2023-05-23T01:04:26;101038.94;;;18.68;72.52
818;BME280;391;51.052;6.954;2023-05-23T01:06:30;101051.25;;;18.60;72.68
818;BME280;391;51.052;6.954;2023-05-23T01:08:35;101048.59;;;18.49;73.26
818;BME280;391;51.052;6.954;2023-05-23T01:10:39;101045.91;;;18.45;73.31
818;BME280;391;51.052;6.954;2023-05-23T01:12:51;101030.03;;;18.33;73.20
818;BME280;391;51.052;6.954;2023-05-23T01:15:04;101054.72;;;18.47;73.62
818;BME280;391;51.052;6.954;2023-05-23T01:17:13;101050.28;;;18.44;73.75
818;BME280;391;51.052;6.954;2023-05-23T01:19:46;101053.88;;;18.49;73.54
818;BME280;391;51.052;6.954;2023-05-23T01:21:52;101008.00;;;18.16;73.79
818;BME280;391;51.052;6.954;2023-05-23T01:24:18;101047.69;;;18.43;73.85
818;BME280;391;51.052;6.954;2023-05-23T01:26:32;101047.66;;;18.47;73.95
818;BME280;391;51.052;6.954;2023-05-23T01:28:45;101043.28;;;18.40;74.04
818;BME280;391;51.052;6.954;2023-05-23T01:30:51;101044.13;;;18.32;74.13
818;BME280;391;51.052;6.954;2023-05-23T01:32:58;101051.16;;;18.24;74.06
818;BME280;391;51.052;6.954;2023-05-23T01:35:03;101048.47;;;18.06;74.04
818;BME280;391;51.052;6.954;2023-05-23T01:37:08;101051.09;;;18.03;74.08
818;BME280;391;51.052;6.954;2023-05-23T01:39:13;101056.31;;;17.92;73.41
818;BME280;391;51.052;6.954;2023-05-23T01:41:16;101058.91;;;17.84;72.76
818;BME280;391;51.052;6.954;2023-05-23T01:43:20;101045.72;;;17.84;72.25
818;BME280;391;51.052;6.954;2023-05-23T01:45:28;101034.22;;;17.66;71.27
818;BME280;391;51.052;6.954;2023-05-23T01:47:32;101060.66;;;17.81;71.16
818;BME280;391;51.052;6.954;2023-05-23T01:49:36;101065.88;;;17.72;71.14
818;BME280;391;51.052;6.954;2023-05-23T01:51:41;101074.66;;;17.66;71.01
818;BME280;391;51.052;6.954;2023-05-23T01:53:45;101074.69;;;17.69;71.13
818;BME280;391;51.052;6.954;2023-05-23T01:55:48;101072.00;;;17.60;71.37
818;BME280;391;51.052;6.954;2023-05-23T01:57:54;101068.50;;;17.69;71.21
818;BME280;391;51.052;6.954;2023-05-23T01:59:58;101065.84;;;17.63;70.88
818;BME280;391;51.052;6.954;2023-05-23T02:02:03;101071.16;;;17.67;71.02
818;BME280;391;51.052;6.954;2023-05-23T02:04:07;101071.19;;;17.70;71.29
818;BME280;391;51.052;6.954;2023-05-23T02:06:11;101071.22;;;17.84;71.05
818;BME280;391;51.052;6.954;2023-05-23T02:08:14;101078.31;;;17.92;70.56
818;BME280;391;51.052;6.954;2023-05-23T02:10:18;101046.63;;;17.83;70.45
818;BME280;391;51.052;6.954;2023-05-23T02:12:21;101087.19;;;18.11;70.24
818;BME280;391;51.052;6.954;2023-05-23T02:14:25;101065.16;;;18.05;70.30
818;BME280;391;51.052;6.954;2023-05-23T02:16:29;101050.19;;;17.97;69.77
818;BME280;391;51.052;6.954;2023-05-23T02:18:35;101077.50;;;18.13;69.85
818;BME280;391;51.052;6.954;2023-05-23T02:20:40;101080.16;;;18.18;69.83
818;BME280;391;51.052;6.954;2023-05-23T02:22:44;101076.59;;;18.04;70.25
818;BME280;391;51.052;6.954;2023-05-23T02:24:48;101076.59;;;17.99;70.38
818;BME280;391;51.052;6.954;2023-05-23T02:26:52;101076.59;;;18.02;70.38
818;BME280;391;51.052;6.954;2023-05-23T02:28:55;101077.47;;;18.07;70.40
818;BME280;391;51.052;6.954;2023-05-23T02:30:59;101075.69;;;18.03;70.31
818;BME280;391;51.052;6.954;2023-05-23T02:33:04;101081.88;;;18.10;70.76
818;BME280;391;51.052;6.954;2023-05-23T02:35:10;101085.41;;;18.10;70.51
818;BME280;391;51.052;6.954;2023-05-23T02:37:15;101086.28;;;18.11;70.61
818;BME280;391;51.052;6.954;2023-05-23T02:39:18;101073.00;;;17.83;71.04
818;BME280;391;51.052;6.954;2023-05-23T02:41:22;101087.09;;;17.88;71.09
818;BME280;391;51.052;6.954;2023-05-23T02:43:26;101087.06;;;17.87;71.50
818;BME280;391;51.052;6.954;2023-05-23T02:45:30;101087.09;;;17.91;71.45
818;BME280;391;51.052;6.954;2023-05-23T02:47:33;101101.09;;;17.77;71.66
818;BME280;391;51.052;6.954;2023-05-23T02:49:37;101088.78;;;17.76;71.96
818;BME280;391;51.052;6.954;2023-05-23T02:51:42;101081.72;;;17.70;71.91
818;BME280;391;51.052;6.954;2023-05-23T02:53:46;101089.69;;;17.82;71.92
818;BME280;391;51.052;6.954;2023-05-23T02:55:49;101092.34;;;17.82;71.83
818;BME280;391;51.052;6.954;2023-05-23T02:57:53;101089.72;;;17.91;71.84
818;BME280;391;51.052;6.954;2023-05-23T02:59:58;101088.00;;;17.98;71.56
818;BME280;391;51.052;6.954;2023-05-23T03:02:01;101095.03;;;17.97;71.38
818;BME280;391;51.052;6.954;2023-05-23T03:04:05;101086.22;;;17.91;71.40
818;BME280;391;51.052;6.954;2023-05-23T03:06:08;101091.41;;;17.77;71.59
818;BME280;391;51.052;6.954;2023-05-23T03:08:17;101091.31;;;17.59;72.40
818;BME280;391;51.052;6.954;2023-05-23T03:10:20;101087.84;;;17.66;72.89
818;BME280;391;51.052;6.954;2023-05-23T03:12:23;101087.88;;;17.75;72.52
818;BME280;391;51.052;6.954;2023-05-23T03:14:28;101103.72;;;17.78;72.37
818;BME280;391;51.052;6.954;2023-05-23T03:16:31;101097.56;;;17.78;72.27
818;BME280;391;51.052;6.954;2023-05-23T03:18:35;101101.06;;;17.72;72.38
818;BME280;391;51.052;6.954;2023-05-23T03:20:38;101092.19;;;17.58;73.16
818;BME280;391;51.052;6.954;2023-05-23T03:22:41;101090.34;;;17.50;73.46
818;BME280;391;51.052;6.954;2023-05-23T03:24:48;101095.59;;;17.46;73.92
818;BME280;391;51.052;6.954;2023-05-23T03:26:51;101107.13;;;17.59;73.70
818;BME280;391;51.052;6.954;2023-05-23T03:28:54;101104.47;;;17.56;74.04
818;BME280;391;51.052;6.954;2023-05-23T03:30:58;101101.00;;;17.65;74.07
818;BME280;391;51.052;6.954;2023-05-23T03:33:02;101102.72;;;17.57;74.75
818;BME280;391;51.052;6.954;2023-05-23T03:35:06;101108.78;;;17.45;75.20
818;BME280;391;51.052;6.954;2023-05-23T03:37:09;100980.75;;;16.57;75.94
818;BME280;391;51.052;6.954;2023-05-23T03:39:13;101115.69;;;17.28;76.30
818;BME280;391;51.052;6.954;2023-05-23T03:41:18;101096.41;;;17.35;76.42
818;BME280;391;51.052;6.954;2023-05-23T03:43:22;101102.56;;;17.37;76.06
818;BME280;391;51.052;6.954;2023-05-23T03:45:26;101106.16;;;17.45;75.93
818;BME280;391;51.052;6.954;2023-05-23T03:47:29;100998.44;;;16.73;76.16
818;BME280;391;51.052;6.954;2023-05-23T03:49:33;101101.63;;;17.26;76.48
818;BME280;391;51.052;6.954;2023-05-23T03:51:37;101104.28;;;17.30;76.30
818;BME280;391;51.052;6.954;2023-05-23T03:53:42;101104.31;;;17.35;76.20
818;BME280;391;51.052;6.954;2023-05-23T03:55:45;101110.44;;;17.31;75.87
818;BME280;391;51.052;6.954;2023-05-23T03:57:50;101108.56;;;17.18;76.12
818;BME280;391;51.052;6.954;2023-05-23T03:59:54;101111.22;;;17.16;76.48
818;BME280;391;51.052;6.954;2023-05-23T04:01:59;101104.22;;;17.24;76.18
818;BME280;391;51.052;6.954;2023-05-23T04:04:03;101108.63;;;17.27;75.87
818;BME280;391;51.052;6.954;2023-05-23T04:06:10;101113.03;;;17.25;75.81
818;BME280;391;51.052;6.954;2023-05-23T04:08:17;101115.63;;;17.22;75.78
818;BME280;391;51.052;6.954;2023-05-23T04:10:25;101111.28;;;17.25;76.04
818;BME280;391;51.052;6.954;2023-05-23T04:12:28;101121.03;;;17.37;75.60
818;BME280;391;51.052;6.954;2023-05-23T04:14:36;101128.03;;;17.35;75.31
818;BME280;391;51.052;6.954;2023-05-23T04:16:41;101120.09;;;17.33;75.16
818;BME280;391;51.052;6.954;2023-05-23T04:18:49;101131.50;;;17.31;74.76
818;BME280;391;51.052;6.954;2023-05-23T04:20:53;101069.72;;;16.91;75.02
818;BME280;391;51.052;6.954;2023-05-23T04:22:56;101138.50;;;17.24;74.79
818;BME280;391;51.052;6.954;2023-05-23T04:25:01;101134.19;;;17.32;74.79
818;BME280;391;51.052;6.954;2023-05-23T04:27:09;101142.94;;;17.33;74.64
818;BME280;391;51.052;6.954;2023-05-23T04:29:12;101132.34;;;17.22;74.51
818;BME280;391;51.052;6.954;2023-05-23T04:31:18;101132.25;;;17.12;74.88
818;BME280;391;51.052;6.954;2023-05-23T04:33:22;101143.63;;;17.11;75.12
818;BME280;391;51.052;6.954;2023-05-23T04:35:27;101145.50;;;17.22;74.83
818;BME280;391;51.052;6.954;2023-05-23T04:37:30;101143.69;;;17.17;74.92
818;BME280;391;51.052;6.954;2023-05-23T04:39:36;101142.84;;;17.19;75.00
818;BME280;391;51.052;6.954;2023-05-23T04:42:04;101155.16;;;17.23;75.05
818;BME280;391;51.052;6.954;2023-05-23T04:44:26;101143.50;;;16.96;75.87
818;BME280;391;51.052;6.954;2023-05-23T04:46:55;101148.84;;;17.02;76.23
818;BME280;391;51.052;6.954;2023-05-23T04:49:13;101148.94;;;17.12;75.89
818;BME280;391;51.052;6.954;2023-05-23T04:51:18;101148.97;;;17.17;76.03
818;BME280;391;51.052;6.954;2023-05-23T04:53:28;101117.19;;;16.97;76.02
818;BME280;391;51.052;6.954;2023-05-23T04:55:33;101149.06;;;17.27;76.09
818;BME280;391;51.052;6.954;2023-05-23T04:57:37;101152.63;;;17.32;75.68
818;BME280;391;51.052;6.954;2023-05-23T04:59:41;101161.31;;;17.22;75.88
818;BME280;391;51.052;6.954;2023-05-23T05:01:45;101159.47;;;17.14;76.42
818;BME280;391;51.052;6.954;2023-05-23T05:03:50;101160.41;;;17.19;76.34
818;BME280;391;51.052;6.954;2023-05-23T05:05:54;101163.06;;;17.23;76.18
818;BME280;391;51.052;6.954;2023-05-23T05:07:57;101159.44;;;17.06;76.34
818;BME280;391;51.052;6.954;2023-05-23T05:10:01;101155.00;;;17.02;76.85
818;BME280;391;51.052;6.954;2023-05-23T05:12:07;101162.88;;;16.99;76.86
818;BME280;391;51.052;6.954;2023-05-23T05:14:10;101159.28;;;16.92;77.45
818;BME280;391;51.052;6.954;2023-05-23T05:16:13;101139.13;;;16.96;77.31
818;BME280;391;51.052;6.954;2023-05-23T05:18:17;101167.47;;;17.20;76.71
818;BME280;391;51.052;6.954;2023-05-23T05:20:22;101166.56;;;17.19;76.61
818;BME280;391;51.052;6.954;2023-05-23T05:22:25;101162.22;;;17.23;76.54
818;BME280;391;51.052;6.954;2023-05-23T05:24:29;101166.59;;;17.22;76.42
818;BME280;391;51.052;6.954;2023-05-23T05:26:34;101163.06;;;17.19;76.69
818;BME280;391;51.052;6.954;2023-05-23T05:28:38;101171.88;;;17.22;76.64
818;BME280;391;51.052;6.954;2023-05-23T05:30:42;101119.72;;;16.86;76.25
818;BME280;391;51.052;6.954;2023-05-23T05:32:47;101179.69;;;17.15;76.75
818;BME280;391;51.052;6.954;2023-05-23T05:34:51;101177.06;;;17.13;77.00
818;BME280;391;51.052;6.954;2023-05-23T05:36:56;101180.63;;;17.20;77.01
818;BME280;391;51.052;6.954;2023-05-23T05:39:00;101176.19;;;17.13;76.67
818;BME280;391;51.052;6.954;2023-05-23T05:41:04;101184.84;;;17.03;77.24
818;BME280;391;51.052;6.954;2023-05-23T05:43:13;101147.81;;;16.84;77.44
818;BME280;391;51.052;6.954;2023-05-23T05:45:17;101148.63;;;16.80;77.35
818;BME280;391;51.052;6.954;2023-05-23T05:47:23;101181.34;;;17.01;77.49
818;BME280;391;51.052;6.954;2023-05-23T05:49:27;101193.63;;;17.02;77.69
818;BME280;391;51.052;6.954;2023-05-23T05:51:31;101178.78;;;17.10;77.44
818;BME280;391;51.052;6.954;2023-05-23T05:53:36;101184.81;;;17.01;77.67
818;BME280;391;51.052;6.954;2023-05-23T05:55:39;101186.59;;;17.02;77.56
818;BME280;391;51.052;6.954;2023-05-23T05:57:43;101199.69;;;16.94;77.46
818;BME280;391;51.052;6.954;2023-05-23T05:59:47;101196.09;;;16.86;78.23
818;BME280;391;51.052;6.954;2023-05-23T06:01:50;101189.97;;;16.89;78.21
818;BME280;391;51.052;6.954;2023-05-23T06:03:54;101182.75;;;16.68;78.26
818;BME280;391;51.052;6.954;2023-05-23T06:05:58;101189.84;;;16.78;78.88
818;BME280;391;51.052;6.954;2023-05-23T06:08:02;101204.88;;;16.85;78.71
818;BME280;391;51.052;6.954;2023-05-23T06:10:08;101063.63;;;16.12;78.59
818;BME280;391;51.052;6.954;2023-05-23T06:12:14;101197.91;;;16.90;78.62
818;BME280;391;51.052;6.954;2023-05-23T06:14:17;101197.78;;;16.80;79.32
818;BME280;391;51.052;6.954;2023-05-23T06:16:21;101199.78;;;17.01;79.17
818;BME280;391;51.052;6.954;2023-05-23T06:18:25;101186.69;;;17.11;79.00
818;BME280;391;51.052;6.954;2023-05-23T06:20:28;101199.03;;;17.15;78.65
818;BME280;391;51.052;6.954;2023-05-23T06:22:34;101199.81;;;17.04;78.17
818;BME280;391;51.052;6.954;2023-05-23T06:24:38;101201.56;;;17.05;78.83
818;BME280;391;51.052;6.954;2023-05-23T06:26:43;101205.13;;;17.11;78.17
818;BME280;391;51.052;6.954;2023-05-23T06:28:47;101206.13;;;17.24;77.96
818;BME280;391;51.052;6.954;2023-05-23T06:30:50;101203.44;;;17.18;77.60
818;BME280;391;51.052;6.954;2023-05-23T06:32:54;101209.50;;;17.11;77.85
818;BME280;391;51.052;6.954;2023-05-23T06:34:59;101206.72;;;16.96;78.06
818;BME280;391;51.052;6.954;2023-05-23T06:37:03;101171.53;;;16.87;78.04
818;BME280;391;51.052;6.954;2023-05-23T06:39:06;101202.50;;;17.10;78.02
818;BME280;391;51.052;6.954;2023-05-23T06:41:11;101205.84;;;16.95;77.73
818;BME280;391;51.052;6.954;2023-05-23T06:43:16;101205.00;;;16.96;78.45
818;BME280;391;51.052;6.954;2023-05-23T06:45:25;101212.91;;;16.99;78.26
818;BME280;391;51.052;6.954;2023-05-23T06:47:29;101208.56;;;17.04;78.09
818;BME280;391;51.052;6.954;2023-05-23T06:49:32;101212.22;;;17.18;77.85
818;BME280;391;51.052;6.954;2023-05-23T06:51:36;101221.88;;;17.18;77.49
818;BME280;391;51.052;6.954;2023-05-23T06:53:39;101217.41;;;17.11;77.50
818;BME280;391;51.052;6.954;2023-05-23T06:55:43;101226.31;;;17.19;77.46
818;BME280;391;51.052;6.954;2023-05-23T06:57:49;101215.47;;;16.91;77.44
818;BME280;391;51.052;6.954;2023-05-23T06:59:56;101197.69;;;16.71;77.45
818;BME280;391;51.052;6.954;2023-05-23T07:02:00;101232.19;;;16.93;77.31
818;BME280;391;51.052;6.954;2023-05-23T07:04:03;101228.78;;;17.05;77.25
818;BME280;391;51.052;6.954;2023-05-23T07:06:08;101232.31;;;17.06;76.98
818;BME280;391;51.052;6.954;2023-05-23T07:08:12;101234.97;;;17.09;76.59
818;BME280;391;51.052;6.954;2023-05-23T07:10:26;101243.81;;;17.12;76.52
818;BME280;391;51.052;6.954;2023-05-23T07:12:37;101247.47;;;17.28;75.75
818;BME280;391;51.052;6.954;2023-05-23T07:14:41;101251.81;;;17.24;75.63
818;BME280;391;51.052;6.954;2023-05-23T07:16:46;101260.59;;;17.22;75.35
818;BME280;391;51.052;6.954;2023-05-23T07:18:51;101255.28;;;17.19;75.20
818;BME280;391;51.052;6.954;2023-05-23T07:20:54;101258.81;;;17.19;75.09
818;BME280;391;51.052;6.954;2023-05-23T07:22:58;101264.91;;;17.15;74.93
818;BME280;391;51.052;6.954;2023-05-23T07:25:04;101270.91;;;17.01;75.60
818;BME280;391;51.052;6.954;2023-05-23T07:27:09;101242.72;;;16.93;75.36
818;BME280;391;51.052;6.954;2023-05-23T07:29:13;101266.63;;;17.10;74.99
818;BME280;391;51.052;6.954;2023-05-23T07:31:19;101266.59;;;17.09;74.91
818;BME280;391;51.052;6.954;2023-05-23T07:33:27;101261.31;;;17.09;75.01
818;BME280;391;51.052;6.954;2023-05-23T07:35:36;101260.44;;;17.08;74.65
818;BME280;391;51.052;6.954;2023-05-23T07:37:40;101264.84;;;17.11;74.55
818;BME280;391;51.052;6.954;2023-05-23T07:39:44;101257.81;;;17.08;74.17
818;BME280;391;51.052;6.954;2023-05-23T07:41:47;101271.97;;;17.16;74.18
818;BME280;391;51.052;6.954;2023-05-23T07:43:52;101267.63;;;17.20;74.23
818;BME280;391;51.052;6.954;2023-05-23T07:45:55;101269.44;;;17.30;73.91
818;BME280;391;51.052;6.954;2023-05-23T07:47:59;101277.44;;;17.39;73.93
818;BME280;391;51.052;6.954;2023-05-23T07:50:07;101273.91;;;17.37;73.72
818;BME280;391;51.052;6.954;2023-05-23T07:52:12;101275.63;;;17.32;73.67
818;BME280;391;51.052;6.954;2023-05-23T07:54:16;101265.91;;;17.28;73.78
818;BME280;391;51.052;6.954;2023-05-23T07:56:19;101285.13;;;17.18;73.73
818;BME280;391;51.052;6.954;2023-05-23T07:58:24;101271.00;;;17.10;73.70
818;BME280;391;51.052;6.954;2023-05-23T08:00:27;101263.94;;;17.07;73.51
818;BME280;391;51.052;6.954;2023-05-23T08:02:38;101270.91;;;17.02;73.57
818;BME280;391;51.052;6.954;2023-05-23T08:04:45;101278.13;;;17.18;73.44
818;BME280;391;51.052;6.954;2023-05-23T08:06:51;101281.66;;;17.19;73.14
818;BME280;391;51.052;6.954;2023-05-23T08:09:27;101281.63;;;17.20;73.13
818;BME280;391;51.052;6.954;2023-05-23T08:11:32;101224.16;;;16.81;73.22
818;BME280;391;51.052;6.954;2023-05-23T08:13:36;101285.88;;;17.05;73.40
818;BME280;391;51.052;6.954;2023-05-23T08:16:05;101284.97;;;17.03;73.76
818;BME280;391;51.052;6.954;2023-05-23T08:18:09;101290.19;;;16.97;73.96
818;BME280;391;51.052;6.954;2023-05-23T08:20:12;101290.22;;;17.00;73.96
818;BME280;391;51.052;6.954;2023-05-23T08:22:17;101295.59;;;17.09;73.95
818;BME280;391;51.052;6.954;2023-05-23T08:24:21;101293.91;;;17.15;73.73
818;BME280;391;51.052;6.954;2023-05-23T08:26:26;101297.31;;;17.08;74.02
818;BME280;391;51.052;6.954;2023-05-23T08:28:36;101300.72;;;16.97;74.49
818;BME280;391;51.052;6.954;2023-05-23T08:30:41;101294.50;;;16.91;74.93
818;BME280;391;51.052;6.954;2023-05-23T08:32:45;101302.38;;;16.90;75.23
818;BME280;391;51.052;6.954;2023-05-23T08:34:48;101302.31;;;16.84;75.37
818;BME280;391;51.052;6.954;2023-05-23T08:36:52;101287.41;;;16.84;75.30
818;BME280;391;51.052;6.954;2023-05-23T08:38:57;101313.84;;;16.95;75.20
818;BME280;391;51.052;6.954;2023-05-23T08:41:10;101314.53;;;16.79;75.45
818;BME280;391;51.052;6.954;2023-05-23T08:43:18;101295.81;;;16.59;75.84
818;BME280;391;51.052;6.954;2023-05-23T08:45:22;101304.84;;;16.76;75.98
818;BME280;391;51.052;6.954;2023-05-23T08:47:26;101319.84;;;16.82;75.84
818;BME280;391;51.052;6.954;2023-05-23T08:49:37;101320.69;;;16.79;75.54
818;BME280;391;51.052;6.954;2023-05-23T08:51:42;101334.66;;;16.74;75.45
818;BME280;391;51.052;6.954;2023-05-23T08:53:52;101324.88;;;16.64;75.16
818;BME280;391;51.052;6.954;2023-05-23T08:56:01;101324.75;;;16.55;75.07
818;BME280;391;51.052;6.954;2023-05-23T08:58:14;101338.66;;;16.48;75.09
818;BME280;391;51.052;6.954;2023-05-23T09:00:25;101340.34;;;16.42;75.07
818;BME280;391;51.052;6.954;2023-05-23T09:02:30;101338.72;;;16.52;74.58
818;BME280;391;51.052;6.954;2023-05-23T09:04:45;101345.28;;;16.80;74.19
818;BME280;391;51.052;6.954;2023-05-23T09:06:55;101356.63;;;16.76;73.82
818;BME280;391;51.052;6.954;2023-05-23T09:08:59;101351.19;;;16.62;73.40
818;BME280;391;51.052;6.954;2023-05-23T09:11:05;101351.06;;;16.55;73.46
818;BME280;391;51.052;6.954;2023-05-23T09:13:12;101328.03;;;16.41;73.54
818;BME280;391;51.052;6.954;2023-05-23T09:15:16;101359.75;;;16.51;73.42
818;BME280;391;51.052;6.954;2023-05-23T09:17:20;101360.88;;;16.65;73.53
818;BME280;391;51.052;6.954;2023-05-23T09:19:26;101366.06;;;16.60;73.13
818;BME280;391;51.052;6.954;2023-05-23T09:21:36;101364.16;;;16.53;73.45
818;BME280;391;51.052;6.954;2023-05-23T09:23:47;101370.22;;;16.46;73.70
818;BME280;391;51.052;6.954;2023-05-23T09:25:51;101359.75;;;16.51;73.88
818;BME280;391;51.052;6.954;2023-05-23T09:27:56;101367.09;;;16.70;73.57
818;BME280;391;51.052;6.954;2023-05-23T09:30:05;101373.38;;;16.79;73.39
818;BME280;391;51.052;6.954;2023-05-23T09:32:10;101260.06;;;16.13;73.35
818;BME280;391;51.052;6.954;2023-05-23T09:34:14;101371.22;;;16.53;73.36
818;BME280;391;51.052;6.954;2023-05-23T09:36:18;101347.78;;;16.14;73.78
818;BME280;391;51.052;6.954;2023-05-23T09:38:23;101309.75;;;15.94;74.06
818;BME280;391;51.052;6.954;2023-05-23T09:40:30;101316.69;;;15.90;73.94
818;BME280;391;51.052;6.954;2023-05-23T09:42:40;101365.59;;;16.31;73.89
818;BME280;391;51.052;6.954;2023-05-23T09:44:45;101382.59;;;16.52;73.98
818;BME280;391;51.052;6.954;2023-05-23T09:46:50;101384.28;;;16.48;73.68
818;BME280;391;51.052;6.954;2023-05-23T09:48:55;101382.56;;;16.50;73.53
818;BME280;391;51.052;6.954;2023-05-23T09:51:03;101389.56;;;16.50;73.75
818;BME280;391;51.052;6.954;2023-05-23T09:53:07;101380.97;;;16.60;73.51
818;BME280;391;51.052;6.954;2023-05-23T09:55:10;101386.25;;;16.60;73.04
818;BME280;391;51.052;6.954;2023-05-23T09:57:15;101384.38;;;16.54;73.29
818;BME280;391;51.052;6.954;2023-05-23T09:59:20;101395.72;;;16.49;73.71
818;BME280;391;51.052;6.954;2023-05-23T10:01:29;101388.47;;;16.37;73.82
818;BME280;391;51.052;6.954;2023-05-23T10:03:38;101381.28;;;16.25;74.50
818;BME280;391;51.052;6.954;2023-05-23T10:05:44;101381.38;;;16.30;74.78
818;BME280;391;51.052;6.954;2023-05-23T10:07:48;101384.19;;;16.42;74.50
818;BME280;391;51.052;6.954;2023-05-23T10:09:54;101389.63;;;16.53;74.13
818;BME280;391;51.052;6.954;2023-05-23T10:12:36;101396.59;;;16.49;73.72
818;BME280;391;51.052;6.954;2023-05-23T10:14:44;101392.38;;;16.59;73.80
818;BME280;391;51.052;6.954;2023-05-23T10:16:59;101400.38;;;16.66;73.33
818;BME280;391;51.052;6.954;2023-05-23T10:19:06;101398.88;;;16.83;72.17
818;BME280;391;51.052;6.954;2023-05-23T10:21:18;101400.72;;;16.89;71.89
818;BME280;391;51.052;6.954;2023-05-23T10:23:23;101397.59;;;17.19;71.54
818;BME280;391;51.052;6.954;2023-05-23T10:25:27;101398.09;;;17.57;70.93
818;BME280;391;51.052;6.954;2023-05-23T10:27:31;101399.09;;;17.69;69.19
818;BME280;391;51.052;6.954;2023-05-23T10:29:35;101403.16;;;17.43;68.13
818;BME280;391;51.052;6.954;2023-05-23T10:31:39;101406.22;;;17.06;68.23
818;BME280;391;51.052;6.954;2023-05-23T10:33:49;101414.19;;;17.12;69.00
818;BME280;391;51.052;6.954;2023-05-23T10:35:57;101414.00;;;16.98;69.12
818;BME280;391;51.052;6.954;2023-05-23T10:38:09;101426.91;;;16.78;69.32
818;BME280;391;51.052;6.954;2023-05-23T10:40:21;101282.25;;;15.75;70.04
818;BME280;391;51.052;6.954;2023-05-23T10:42:33;101421.22;;;16.53;70.72
818;BME280;391;51.052;6.954;2023-05-23T10:44:40;101427.44;;;16.56;70.77
818;BME280;391;51.052;6.954;2023-05-23T10:46:51;101434.47;;;16.57;70.42
818;BME280;391;51.052;6.954;2023-05-23T10:48:57;101445.78;;;16.52;69.94
818;BME280;391;51.052;6.954;2023-05-23T10:51:03;101414.72;;;16.31;70.26
818;BME280;391;51.052;6.954;2023-05-23T10:53:08;101440.38;;;16.42;70.75
818;BME280;391;51.052;6.954;2023-05-23T10:55:13;101449.38;;;16.57;70.36
818;BME280;391;51.052;6.954;2023-05-23T10:57:20;101451.00;;;16.50;69.46
818;BME280;391;51.052;6.954;2023-05-23T10:59:26;101441.41;;;16.52;69.74
818;BME280;391;51.052;6.954;2023-05-23T11:01:30;101435.38;;;16.58;69.70
818;BME280;391;51.052;6.954;2023-05-23T11:03:35;101440.69;;;16.61;69.23
818;BME280;391;51.052;6.954;2023-05-23T11:05:46;101459.81;;;16.52;68.83
818;BME280;391;51.052;6.954;2023-05-23T11:08:06;101441.78;;;16.22;69.18
818;BME280;391;51.052;6.954;2023-05-23T11:10:11;101454.84;;;16.18;69.50
818;BME280;391;51.052;6.954;2023-05-23T11:12:35;101459.88;;;16.06;69.62
818;BME280;391;51.052;6.954;2023-05-23T11:14:52;101463.34;;;16.03;70.66
818;BME280;391;51.052;6.954;2023-05-23T11:16:57;101455.66;;;16.15;70.32
818;BME280;391;51.052;6.954;2023-05-23T11:19:20;101462.09;;;16.31;70.19
818;BME280;391;51.052;6.954;2023-05-23T11:21:28;101463.56;;;16.15;69.69
818;BME280;391;51.052;6.954;2023-05-23T11:23:39;101465.09;;;16.01;69.53
818;BME280;391;51.052;6.954;2023-05-23T11:25:43;101461.28;;;15.87;69.14
818;BME280;391;51.052;6.954;2023-05-23T11:27:48;101469.47;;;16.02;69.08
818;BME280;391;51.052;6.954;2023-05-23T11:30:00;101474.81;;;16.08;68.77
818;BME280;391;51.052;6.954;2023-05-23T11:32:09;101476.59;;;16.08;68.39
818;BME280;391;51.052;6.954;2023-05-23T11:34:19;101460.25;;;16.25;68.27
818;BME280;391;51.052;6.954;2023-05-23T11:36:23;101473.00;;;16.52;67.77